Time;durP1;ratioP1;P1;durP2;ratioP2;P2;SDS_P1;SDS_P2;PMS_P1;PMS_P2;Temp;Humidity;BMP_temperature;BMP_pressure;BME280_temperature;BME280_humidity;BME280_pressure;Samples;Min_cycle;Max_cycle;Signal;HPM_P1;HPM_P2
2021/12/03 00:01:15;;;;;;;0.30;0.30;;;19.70;61.10;;;23.77;35.92;93758.66;6081319;19;20011;-58
2021/12/03 00:03:17;;;;;;;0.40;0.30;;;19.70;61.10;;;23.77;35.94;93761.38;6056990;19;20518;-58
2021/12/03 00:05:19;;;;;;;0.40;0.30;;;19.70;61.10;;;23.74;35.69;93763.69;6079237;19;20034;-58
2021/12/03 00:07:19;;;;;;;0.38;0.38;;;19.70;61.00;;;23.74;35.40;93762.91;6093624;19;20011;-58
2021/12/03 00:09:20;;;;;;;0.40;0.40;;;19.70;61.00;;;23.73;35.47;93764.06;6079925;19;20074;-59
2021/12/03 00:11:21;;;;;;;0.43;0.40;;;19.70;61.00;;;23.72;35.80;93759.78;6073854;19;20010;-58
2021/12/03 00:13:23;;;;;;;0.32;0.30;;;19.70;61.10;;;23.71;35.93;93767.16;6086292;19;20015;-58
2021/12/03 00:15:25;;;;;;;0.60;0.40;;;19.70;61.10;;;23.70;35.82;93778.41;6090784;19;20010;-58
2021/12/03 00:17:26;;;;;;;0.40;0.40;;;19.70;61.20;;;23.69;35.86;93777.63;6081324;19;20006;-58
2021/12/03 00:19:27;;;;;;;0.25;0.25;;;19.70;61.10;;;23.68;35.85;93775.25;6087752;19;20680;-58
2021/12/03 00:21:28;;;;;;;0.52;0.40;;;19.70;61.00;;;23.67;35.77;93784.56;6081336;19;20447;-57
2021/12/03 00:23:32;;;;;;;0.40;0.40;;;19.70;61.10;;;23.65;35.47;93786.88;6076662;19;20069;-58
2021/12/03 00:25:34;;;;;;;0.40;0.28;;;19.70;61.00;;;23.64;35.69;93786.09;6079788;19;20010;-57
2021/12/03 00:27:35;;;;;;;0.40;0.40;;;19.70;61.10;;;23.63;35.76;93789.97;6078333;19;20232;-57
2021/12/03 00:29:36;;;;;;;0.35;0.35;;;19.60;60.90;;;23.63;35.50;93802.78;6077778;19;20696;-58
2021/12/03 00:31:37;;;;;;;0.30;0.30;;;19.60;60.90;;;23.62;35.83;93804.72;6073455;19;20006;-58
2021/12/03 00:33:38;;;;;;;0.30;0.30;;;19.60;60.90;;;23.62;35.81;93809.38;6067298;19;20026;-58
2021/12/03 00:35:39;;;;;;;0.30;0.30;;;19.60;60.80;;;23.61;35.43;93810.50;6066847;19;20015;-58
2021/12/03 00:37:41;;;;;;;0.30;0.30;;;19.60;60.70;;;23.61;35.63;93816.72;6069588;19;21312;-57
2021/12/03 00:39:42;;;;;;;0.40;0.40;;;19.50;60.70;;;23.59;35.28;93815.50;6075549;19;20469;-58
2021/12/03 00:41:49;;;;;;;0.30;0.30;;;19.60;60.50;;;23.59;35.51;93823.66;6082126;19;20031;-58
2021/12/03 00:43:52;;;;;;;0.30;0.30;;;19.60;60.70;;;23.57;35.79;93826.75;6086545;19;20023;-57
2021/12/03 00:45:57;;;;;;;0.30;0.30;;;19.60;60.50;;;23.58;35.82;93831.03;6079833;19;20038;-57
2021/12/03 00:48:00;;;;;;;0.30;0.30;;;19.60;60.50;;;23.59;35.70;93842.72;6062009;19;20409;-57
2021/12/03 00:50:00;;;;;;;0.40;0.30;;;19.60;60.50;;;23.59;35.80;93842.72;6068893;19;20665;-57
2021/12/03 00:52:01;;;;;;;0.40;0.40;;;19.60;60.60;;;23.60;35.32;93844.28;6055282;19;19995;-58
2021/12/03 00:54:02;;;;;;;0.30;0.30;;;19.60;60.60;;;23.60;35.30;93850.50;6069445;19;20606;-58
2021/12/03 00:56:04;;;;;;;0.55;0.40;;;19.60;60.50;;;23.60;35.71;93857.88;6069111;19;20709;-58
2021/12/03 00:58:05;;;;;;;0.30;0.30;;;19.60;60.50;;;23.60;35.40;93855.16;6054695;19;20010;-58
2021/12/03 01:00:32;;;;;;;0.40;0.40;;;19.60;60.60;;;23.61;35.31;93867.63;6065991;19;20029;-57
2021/12/03 01:02:32;;;;;;;0.30;0.30;;;19.60;60.60;;;23.61;35.71;93878.50;6069505;19;20014;-58
2021/12/03 01:04:34;;;;;;;0.32;0.32;;;19.60;60.50;;;23.62;35.67;93877.38;6064944;19;20014;-58
2021/12/03 01:06:34;;;;;;;0.40;0.40;;;19.60;60.50;;;23.61;35.74;93879.28;6071633;19;20487;-58
2021/12/03 01:08:36;;;;;;;0.40;0.40;;;19.60;60.50;;;23.63;35.56;93887.13;6078746;19;20039;-58
2021/12/03 01:10:37;;;;;;;0.40;0.30;;;19.60;60.50;;;23.62;35.72;93891.00;6075198;19;20018;-57
2021/12/03 01:12:38;;;;;;;0.40;0.40;;;19.60;60.40;;;23.62;35.63;93894.50;6054392;19;20018;-58
2021/12/03 01:14:39;;;;;;;0.35;0.35;;;19.60;60.40;;;23.62;35.64;93897.22;6081196;19;20505;-57
2021/12/03 01:16:40;;;;;;;0.30;0.30;;;19.60;60.40;;;23.63;35.44;93898.00;6072618;19;20791;-58
2021/12/03 01:18:41;;;;;;;0.40;0.40;;;19.60;60.40;;;23.62;35.66;93901.88;6067270;19;20022;-58
2021/12/03 01:20:44;;;;;;;1.40;0.50;;;19.60;60.40;;;23.61;35.68;93903.00;6057050;19;20024;-59
2021/12/03 01:22:49;;;;;;;0.40;0.40;;;19.60;60.40;;;23.60;35.67;93913.09;6069607;19;20035;-58
2021/12/03 01:24:50;;;;;;;0.30;0.30;;;19.60;60.60;;;23.60;35.31;93906.88;6063492;19;20014;-57
2021/12/03 01:26:54;;;;;;;0.38;0.32;;;19.60;60.50;;;23.60;35.42;93910.38;6070249;19;20038;-58
2021/12/03 01:28:55;;;;;;;0.30;0.30;;;19.60;60.50;;;23.60;35.63;93918.53;6075060;19;20014;-58
2021/12/03 01:30:57;;;;;;;0.40;0.40;;;19.60;60.30;;;23.58;35.60;93929.00;6068671;19;20604;-57
2021/12/03 01:33:00;;;;;;;0.40;0.40;;;19.50;60.20;;;23.59;35.57;93927.06;6065161;19;20106;-58
2021/12/03 01:35:01;;;;;;;0.38;0.30;;;19.60;60.40;;;23.57;35.41;93932.06;6082616;19;20015;-58
2021/12/03 01:37:02;;;;;;;0.30;0.30;;;19.60;60.30;;;23.56;35.49;93942.16;6078604;19;20013;-58
2021/12/03 01:39:04;;;;;;;0.40;0.40;;;19.50;60.20;;;23.56;35.35;93949.53;6077498;19;20479;-57
2021/12/03 01:41:05;;;;;;;0.40;0.40;;;19.50;60.20;;;23.55;35.15;93948.75;6089054;19;20431;-57
2021/12/03 01:43:08;;;;;;;0.30;0.30;;;19.50;60.20;;;23.54;35.55;93949.88;6083103;19;20027;-58
2021/12/03 01:45:12;;;;;;;0.57;0.40;;;19.50;60.20;;;23.53;35.41;93951.03;6075296;19;20015;-57
2021/12/03 01:47:13;;;;;;;0.30;0.30;;;19.50;60.20;;;23.54;35.21;93954.53;6070974;19;20406;-58
2021/12/03 01:49:14;;;;;;;0.40;0.40;;;19.50;60.30;;;23.53;35.21;93950.22;6058285;19;20609;-57
2021/12/03 01:51:15;;;;;;;0.40;0.40;;;19.50;60.20;;;23.52;35.21;93954.88;6065147;19;20007;-57
2021/12/03 01:53:21;;;;;;;0.68;0.40;;;19.50;60.30;;;23.52;35.16;93954.09;6065015;19;20018;-57
2021/12/03 01:55:23;;;;;;;0.65;0.30;;;19.50;60.30;;;23.51;35.34;93947.88;6068433;19;20471;-57
2021/12/03 01:57:24;;;;;;;0.20;0.20;;;19.50;60.40;;;23.51;35.69;93947.09;6070231;19;20479;-57
2021/12/03 01:59:24;;;;;;;0.50;0.30;;;19.50;60.40;;;23.52;35.41;93944.00;6064832;19;20115;-57
2021/12/03 02:01:27;;;;;;;0.20;0.20;;;19.50;60.50;;;23.50;35.69;93938.13;6063265;19;20014;-58
2021/12/03 02:03:34;;;;;;;0.30;0.30;;;19.50;60.70;;;23.52;35.82;93945.94;6062566;19;20442;-58
2021/12/03 02:05:36;;;;;;;3.00;0.28;;;19.50;60.70;;;23.53;35.78;93939.34;6082683;19;20023;-57
2021/12/03 02:07:36;;;;;;;0.30;0.30;;;19.50;60.70;;;23.52;35.56;93952.16;6124258;19;20022;-58
2021/12/03 02:09:37;;;;;;;0.40;0.22;;;19.50;60.70;;;23.53;35.82;93959.19;6077561;19;20014;-57
2021/12/03 02:11:38;;;;;;;0.30;0.30;;;19.50;60.80;;;23.52;35.70;93952.16;6090120;19;20014;-57
2021/12/03 02:13:39;;;;;;;0.30;0.30;;;19.50;60.80;;;23.53;35.56;93958.41;6078833;19;20365;-57
2021/12/03 02:15:42;;;;;;;0.22;0.22;;;19.50;60.70;;;23.53;35.91;93959.19;6069215;19;20015;-58
2021/12/03 02:17:43;;;;;;;0.45;0.30;;;19.40;60.70;;;23.53;35.58;93955.66;6063914;19;20010;-57
2021/12/03 02:19:44;;;;;;;0.32;0.30;;;19.50;60.80;;;23.54;35.82;93958.03;6059400;19;20552;-58
2021/12/03 02:21:45;;;;;;;0.30;0.30;;;19.50;60.80;;;23.54;35.77;93960.75;6072782;19;20011;-57
2021/12/03 02:23:47;;;;;;;0.40;0.20;;;19.50;61.50;;;23.54;35.79;93960.75;6070883;19;20017;-57
2021/12/03 02:25:49;;;;;;;0.25;0.25;;;19.50;60.70;;;23.54;35.83;93959.97;6075566;19;20013;-58
2021/12/03 02:27:54;;;;;;;0.45;0.38;;;19.50;60.70;;;23.54;35.63;93962.69;6069670;19;20018;-57
2021/12/03 02:29:55;;;;;;;0.40;0.40;;;19.50;60.80;;;23.54;35.83;93960.75;6077772;19;20010;-57
2021/12/03 02:31:56;;;;;;;0.17;0.17;;;19.50;60.70;;;23.55;35.44;93959.63;6071209;19;20035;-57
2021/12/03 02:33:57;;;;;;;0.28;0.28;;;19.50;60.70;;;23.54;35.67;93958.03;6079530;19;20044;-57
2021/12/03 02:35:58;;;;;;;0.35;0.32;;;19.50;60.80;;;23.54;35.76;93959.97;6082851;19;20018;-57
2021/12/03 02:37:59;;;;;;;1.15;0.22;;;19.50;60.70;;;23.54;35.41;93962.69;6061850;19;20354;-57
2021/12/03 02:40:00;;;;;;;0.22;0.22;;;19.50;60.80;;;23.53;35.66;93972.00;6078317;19;20026;-58
2021/12/03 02:42:01;;;;;;;0.30;0.30;;;19.50;60.80;;;23.53;35.81;93972.78;6085072;19;20014;-57
2021/12/03 02:44:03;;;;;;;0.43;0.30;;;19.50;60.80;;;23.53;35.55;93974.72;6089364;19;20477;-57
2021/12/03 02:46:04;;;;;;;1.45;0.30;;;19.50;60.80;;;23.51;35.56;93977.00;6077722;19;20057;-57
2021/12/03 02:48:05;;;;;;;0.30;0.30;;;19.50;60.90;;;23.52;35.67;93981.31;6073760;19;20031;-58
2021/12/03 02:50:08;;;;;;;0.20;0.20;;;19.50;60.80;;;23.51;35.59;93985.97;6075674;19;20425;-57
2021/12/03 02:52:10;;;;;;;1.35;0.20;;;19.50;60.80;;;23.51;35.50;93985.16;6072790;19;20507;-58
2021/12/03 02:54:11;;;;;;;0.35;0.35;;;19.50;60.90;;;23.50;35.80;93992.53;6082364;19;20433;-57
2021/12/03 02:56:12;;;;;;;0.28;0.28;;;19.50;60.90;;;23.48;35.87;93983.97;6081721;19;20013;-57
2021/12/03 02:58:13;;;;;;;0.40;0.40;;;19.50;60.90;;;23.48;35.70;93983.97;6059928;19;20606;-57
2021/12/03 03:00:22;;;;;;;1.00;0.30;;;19.50;60.90;;;23.48;35.75;93994.06;6066959;19;20007;-57
2021/12/03 03:02:23;;;;;;;0.25;0.20;;;19.50;61.00;;;23.48;35.62;93996.78;6076452;19;20011;-57
2021/12/03 03:04:24;;;;;;;0.32;0.30;;;19.50;60.90;;;23.48;35.88;93999.50;6070646;19;20721;-57
2021/12/03 03:06:26;;;;;;;0.20;0.20;;;19.50;60.90;;;23.47;35.68;93992.47;6091088;19;20373;-57
2021/12/03 03:08:28;;;;;;;0.47;0.28;;;19.40;60.80;;;23.48;35.42;94010.38;6078246;19;20033;-58
2021/12/03 03:10:31;;;;;;;0.20;0.20;;;19.50;60.90;;;23.47;35.51;94006.88;6073399;19;20946;-57
2021/12/03 03:12:31;;;;;;;;;;;19.50;60.90;;;23.47;35.61;94009.59;6070499;19;20098;-58
2021/12/03 03:14:32;;;;;;;0.50;0.30;;;19.40;61.00;;;23.48;35.75;94010.38;6068633;19;20261;-57
2021/12/03 03:16:34;;;;;;;0.30;0.30;;;19.50;61.10;;;23.49;35.62;94014.66;6068347;19;20518;-58
2021/12/03 03:18:35;;;;;;;0.20;0.20;;;19.50;61.10;;;23.49;35.90;94009.22;6066862;19;20010;-57
2021/12/03 03:20:39;;;;;;;0.30;0.30;;;19.50;61.10;;;23.47;35.46;94016.97;6069070;19;20016;-57
2021/12/03 03:22:42;;;;;;;0.38;0.30;;;19.50;61.10;;;23.47;35.90;94019.69;6073029;19;20490;-57
2021/12/03 03:24:42;;;;;;;;;;;19.50;61.20;;;23.48;35.91;94027.47;6071935;19;20044;-58
2021/12/03 03:26:46;;;;;;;0.38;0.30;;;19.50;61.10;;;23.48;35.84;94026.69;6072720;19;19922;-58
2021/12/03 03:28:47;;;;;;;0.38;0.30;;;19.50;61.10;;;23.47;35.72;94025.91;6070144;19;20014;-58
2021/12/03 03:30:52;;;;;;;0.30;0.20;;;19.50;61.20;;;23.48;35.59;94026.69;6077940;19;20086;-57
2021/12/03 03:32:52;;;;;;;0.30;0.30;;;19.50;61.20;;;23.47;35.55;94030.56;6082331;19;20411;-57
2021/12/03 03:34:53;;;;;;;0.20;0.20;;;19.50;61.10;;;23.47;35.72;94030.56;6079547;19;20582;-57
2021/12/03 03:36:54;;;;;;;0.25;0.25;;;19.50;61.20;;;23.48;35.93;94041.09;6078075;19;20018;-57
2021/12/03 03:38:55;;;;;;;0.20;0.20;;;19.50;61.30;;;23.48;35.70;94040.28;6078925;19;20373;-57
2021/12/03 03:40:57;;;;;;;0.30;0.30;;;19.50;61.10;;;23.48;36.01;94043.00;6083189;19;20018;-57
2021/12/03 03:43:00;;;;;;;0.60;0.27;;;19.50;61.10;;;23.49;35.95;94039.16;6080498;19;20347;-60
2021/12/03 03:45:04;;;;;;;;;;;19.50;61.20;;;23.49;35.89;94042.66;6080118;19;20247;-57
2021/12/03 03:47:06;;;;;;;0.30;0.30;;;19.50;61.10;;;23.48;35.39;94040.28;6075998;19;19936;-59
2021/12/03 03:49:07;;;;;;;0.40;0.30;;;19.40;61.00;;;23.48;35.82;94049.25;6087022;19;20019;-59
2021/12/03 03:51:08;;;;;;;0.28;0.20;;;19.40;61.50;;;23.47;35.57;94044.94;6083986;19;20014;-60
2021/12/03 03:53:11;;;;;;;0.32;0.30;;;19.40;61.10;;;23.47;35.59;94041.44;6090199;19;20082;-57
2021/12/03 03:55:15;;;;;;;0.20;0.20;;;19.40;61.10;;;23.46;35.93;94048.81;6084402;19;20362;-59
2021/12/03 03:57:16;;;;;;;0.30;0.30;;;19.40;61.10;;;23.47;35.93;94044.16;6075773;19;20479;-59
2021/12/03 03:59:17;;;;;;;0.30;0.30;;;19.40;61.10;;;23.46;35.53;94043.38;6084851;19;20006;-59
2021/12/03 04:01:18;;;;;;;0.30;0.30;;;19.50;61.20;;;23.46;35.69;94043.38;6086056;19;20007;-57
2021/12/03 04:03:19;;;;;;;0.20;0.20;;;19.40;61.10;;;23.45;36.02;94053.47;6082871;19;20021;-59
2021/12/03 04:05:20;;;;;;;0.22;0.22;;;19.40;61.10;;;23.44;35.94;94049.16;6089181;19;20475;-59
2021/12/03 04:07:20;;;;;;;1.00;0.32;;;19.40;61.10;;;23.44;35.40;94049.16;6093355;19;20002;-57
2021/12/03 04:09:22;;;;;;;0.20;0.20;;;19.40;61.40;;;23.44;35.93;94053.81;6089727;19;20015;-59
2021/12/03 04:11:24;;;;;;;0.22;0.20;;;19.40;61.10;;;23.44;36.02;94053.81;6086845;19;20039;-59
2021/12/03 04:13:27;;;;;;;0.28;0.28;;;19.40;61.10;;;23.43;35.60;94050.31;6087417;19;20017;-59
2021/12/03 04:15:28;;;;;;;0.28;0.28;;;19.40;61.10;;;23.43;35.97;94052.25;6075686;19;20010;-59
2021/12/03 04:17:29;;;;;;;0.20;0.20;;;19.40;61.10;;;23.42;35.87;94051.47;6087497;19;20043;-59
2021/12/03 04:19:29;;;;;;;0.45;0.30;;;19.40;61.10;;;23.42;35.75;94061.56;6084377;19;20107;-60
2021/12/03 04:21:30;;;;;;;1.63;0.22;;;19.40;61.10;;;23.40;35.68;94053.75;6088118;19;20619;-59
2021/12/03 04:23:31;;;;;;;0.30;0.30;;;19.40;61.10;;;23.40;35.64;94059.19;6077902;19;20544;-59
2021/12/03 04:25:33;;;;;;;0.50;0.30;;;19.40;61.10;;;23.39;35.64;94062.25;6076500;19;20015;-59
2021/12/03 04:27:34;;;;;;;0.30;0.30;;;19.40;61.10;;;23.39;36.01;94060.34;6078722;19;20013;-58
2021/12/03 04:29:36;;;;;;;0.30;0.30;;;19.40;61.10;;;23.38;35.67;94064.19;6083797;19;20040;-59
2021/12/03 04:31:37;;;;;;;0.25;0.25;;;19.40;61.10;;;23.39;35.59;94067.72;6089784;19;20006;-59
2021/12/03 04:33:38;;;;;;;0.30;0.30;;;19.40;61.10;;;23.38;35.99;94068.84;6083942;19;20475;-60
2021/12/03 04:35:39;;;;;;;0.55;0.30;;;19.40;61.10;;;23.38;35.74;94077.81;6088277;19;20014;-60
2021/12/03 04:37:40;;;;;;;0.25;0.25;;;19.40;61.10;;;23.39;36.06;94082.09;6088991;19;20025;-59
2021/12/03 04:39:41;;;;;;;0.20;0.20;;;19.40;61.20;;;23.37;35.89;94076.22;6082507;19;20010;-59
2021/12/03 04:41:42;;;;;;;0.20;0.20;;;19.40;61.30;;;23.39;35.55;94084.03;6070053;19;20010;-59
2021/12/03 04:43:42;;;;;;;0.35;0.30;;;19.40;61.20;;;23.39;35.67;94082.09;6080636;19;20027;-59
2021/12/03 04:45:44;;;;;;;0.30;0.30;;;19.40;61.30;;;23.40;35.84;94085.59;6081130;19;20014;-58
2021/12/03 04:47:47;;;;;;;0.38;0.35;;;19.40;61.30;;;23.41;35.72;94087.97;6073910;19;20014;-58
2021/12/03 04:49:48;;;;;;;0.20;0.20;;;19.40;61.30;;;23.41;36.09;94082.53;6080813;19;20021;-58
2021/12/03 04:51:48;;;;;;;0.32;0.32;;;19.40;61.30;;;23.42;35.63;94083.31;6080476;19;20011;-58
2021/12/03 04:53:49;;;;;;;0.20;0.20;;;19.40;61.30;;;23.42;35.76;94084.09;6077936;19;20006;-58
2021/12/03 04:55:50;;;;;;;0.10;0.10;;;19.40;61.30;;;23.44;35.61;94081.03;6078279;19;20427;-58
2021/12/03 04:57:53;;;;;;;0.30;0.30;;;19.40;61.30;;;23.45;35.82;94082.59;6075619;19;20043;-58
2021/12/03 04:59:54;;;;;;;1.00;0.20;;;19.40;61.40;;;23.47;35.63;94091.19;6085085;19;20010;-57
2021/12/03 05:01:57;;;;;;;0.28;0.22;;;19.40;61.30;;;23.47;35.79;94095.84;6081789;19;20017;-57
2021/12/03 05:03:58;;;;;;;0.22;0.22;;;19.40;61.30;;;23.47;35.59;94095.84;6079362;19;20039;-58
2021/12/03 05:06:02;;;;;;;0.20;0.20;;;19.40;61.30;;;23.48;35.56;94098.22;6079119;19;20010;-58
2021/12/03 05:08:07;;;;;;;0.20;0.20;;;19.40;61.30;;;23.49;35.73;94104.44;6084285;19;20021;-58
2021/12/03 05:10:10;;;;;;;0.30;0.30;;;19.40;61.20;;;23.49;35.94;94109.88;6089758;19;20078;-58
2021/12/03 05:12:11;;;;;;;0.30;0.30;;;19.40;61.20;;;23.50;35.88;94114.16;6069958;19;20006;-58
2021/12/03 05:14:12;;;;;;;0.30;0.30;;;19.40;61.20;;;23.50;35.76;94116.88;6083445;19;20031;-59
2021/12/03 05:16:13;;;;;;;0.20;0.20;;;19.50;61.30;;;23.50;35.63;94116.88;6085086;19;20025;-58
2021/12/03 05:18:20;;;;;;;0.25;0.20;;;19.40;61.30;;;23.49;35.73;94115.31;6086534;19;20412;-58
2021/12/03 05:20:21;;;;;;;0.20;0.20;;;19.40;61.20;;;23.50;35.99;94119.63;6084915;19;20031;-58
2021/12/03 05:22:22;;;;;;;0.20;0.20;;;19.40;61.90;;;23.49;35.42;94115.31;6088535;19;20007;-58
2021/12/03 05:24:23;;;;;;;0.28;0.28;;;19.40;61.20;;;23.49;35.53;94128.91;6077844;19;20010;-58
2021/12/03 05:26:23;;;;;;;0.20;0.20;;;19.40;61.20;;;23.48;35.63;94130.84;6075633;19;20010;-58
2021/12/03 05:28:26;;;;;;;1.10;0.30;;;19.40;61.20;;;23.47;35.52;94126.56;6068367;19;20027;-59
2021/12/03 05:30:27;;;;;;;0.20;0.20;;;19.40;61.20;;;23.48;35.46;94135.50;6068029;19;20026;-58
2021/12/03 05:32:28;;;;;;;0.20;0.20;;;19.40;61.20;;;23.47;35.52;94133.94;6069292;19;20041;-58
2021/12/03 05:34:29;;;;;;;0.20;0.20;;;19.40;61.20;;;23.46;35.76;94138.56;6079713;19;20006;-58
2021/12/03 05:36:30;;;;;;;1.20;0.30;;;19.40;61.20;;;23.45;35.72;94137.00;6078758;19;20043;-58
2021/12/03 05:38:31;;;;;;;0.38;0.35;;;19.40;61.20;;;23.44;36.00;94146.31;6079403;19;20650;-58
2021/12/03 05:40:32;;;;;;;0.40;0.30;;;19.40;61.20;;;23.44;35.63;94149.81;6062890;19;20014;-59
2021/12/03 05:42:33;;;;;;;0.20;0.20;;;19.40;61.20;;;23.44;35.98;94157.19;6067701;19;20014;-58
2021/12/03 05:44:34;;;;;;;0.22;0.22;;;19.40;61.20;;;23.43;35.88;94161.06;6068361;19;20014;-58
2021/12/03 05:46:35;;;;;;;0.30;0.30;;;19.40;61.20;;;23.42;35.75;94162.19;6066476;19;20008;-58
2021/12/03 05:48:36;;;;;;;0.10;0.10;;;19.40;61.10;;;23.41;36.01;94158.69;6068010;19;20483;-58
2021/12/03 05:50:37;;;;;;;0.30;0.30;;;19.40;61.20;;;23.41;35.89;94157.91;6074567;19;21518;-59
2021/12/03 05:52:38;;;;;;;0.20;0.20;;;19.40;61.20;;;23.42;35.83;94168.41;6073703;19;20464;-58
2021/12/03 05:54:39;;;;;;;0.40;0.20;;;19.40;61.20;;;23.41;35.72;94169.56;6061776;19;20796;-57
2021/12/03 05:56:40;;;;;;;0.25;0.25;;;19.40;61.20;;;23.42;35.88;94171.13;6067285;19;20450;-58
2021/12/03 05:58:41;;;;;;;0.30;0.20;;;19.40;61.20;;;23.42;35.73;94175.78;6084101;19;20014;-58
2021/12/03 06:00:43;;;;;;;0.25;0.25;;;19.40;61.20;;;23.42;36.00;94183.97;6067742;19;20021;-58
2021/12/03 06:02:44;;;;;;;0.73;0.25;;;19.40;61.20;;;23.43;35.79;94185.53;6066791;19;20796;-57
2021/12/03 06:04:45;;;;;;;0.20;0.20;;;19.40;61.20;;;23.43;35.49;94189.03;6071344;19;20018;-58
2021/12/03 06:06:46;;;;;;;0.20;0.20;;;19.40;61.20;;;23.44;35.72;94189.81;6067035;19;20002;-58
2021/12/03 06:08:47;;;;;;;0.20;0.20;;;19.40;61.20;;;23.44;35.87;94196.06;6073395;19;20014;-58
2021/12/03 06:10:48;;;;;;;0.13;0.13;;;19.40;61.20;;;23.44;35.83;94201.50;6079080;19;20075;-58
2021/12/03 06:12:50;;;;;;;0.30;0.30;;;19.40;61.20;;;23.45;35.68;94205.78;6080086;19;20527;-58
2021/12/03 06:14:51;;;;;;;0.20;0.20;;;19.40;61.30;;;23.45;36.01;94208.50;6073981;19;20010;-57
2021/12/03 06:16:51;;;;;;;0.20;0.20;;;19.40;61.20;;;23.47;35.60;94218.25;6063590;19;20022;-58
2021/12/03 06:18:52;;;;;;;0.32;0.30;;;19.40;61.20;;;23.47;35.50;94212.81;6067099;19;23967;-58
2021/12/03 06:20:53;;;;;;;0.22;0.20;;;19.40;61.20;;;23.47;35.89;94215.53;6073123;19;20019;-58
2021/12/03 06:22:54;;;;;;;0.20;0.20;;;19.40;61.20;;;23.47;35.51;94223.69;6060606;19;20298;-59
2021/12/03 06:24:56;;;;;;;0.30;0.30;;;19.40;61.20;;;23.47;35.81;94220.97;6077315;19;20088;-59
2021/12/03 06:26:57;;;;;;;0.20;0.20;;;19.40;61.10;;;23.47;35.48;94231.84;6082374;19;20602;-59
2021/12/03 06:28:57;;;;;;;0.15;0.15;;;19.40;61.10;;;23.47;35.90;94235.38;6077871;19;20024;-59
2021/12/03 06:30:58;;;;;;;0.30;0.20;;;19.40;61.10;;;23.47;35.61;94242.75;6056467;19;20011;-59
2021/12/03 06:32:59;;;;;;;0.30;0.30;;;19.40;61.10;;;23.45;35.46;94241.16;6072924;19;20126;-59
2021/12/03 06:35:00;;;;;;;0.22;0.22;;;19.40;61.10;;;23.45;35.44;94243.88;6072439;19;20014;-59
2021/12/03 06:37:01;;;;;;;0.20;0.20;;;19.40;61.10;;;23.45;35.44;94241.16;6072299;19;20043;-59
2021/12/03 06:39:03;;;;;;;0.50;0.30;;;19.40;61.00;;;23.44;35.41;94247.75;6076661;19;20621;-60
2021/12/03 06:41:06;;;;;;;2.43;0.50;;;19.40;61.10;;;23.44;35.44;94247.75;6066083;19;20555;-59
2021/12/03 06:43:07;;;;;;;0.20;0.20;;;19.40;61.00;;;23.43;35.97;94238.00;6067886;19;20093;-58
2021/12/03 06:45:09;;;;;;;0.30;0.30;;;19.40;61.00;;;23.43;35.55;94242.66;6068308;19;20021;-59
2021/12/03 06:47:10;;;;;;;0.22;0.22;;;19.40;61.00;;;23.43;35.60;94248.88;6068420;19;20018;-58
2021/12/03 06:49:11;;;;;;;0.20;0.20;;;19.40;61.00;;;23.41;35.86;94243.00;6073482;19;20078;-59
2021/12/03 06:51:12;;;;;;;0.30;0.30;;;19.40;60.90;;;23.41;35.80;94244.94;6066399;19;20007;-59
2021/12/03 06:53:15;;;;;;;0.30;0.30;;;19.40;61.10;;;23.41;35.61;94244.94;6061000;19;20022;-58
2021/12/03 06:55:16;;;;;;;0.17;0.17;;;19.40;60.90;;;23.41;35.61;94255.81;6060713;19;20463;-58
2021/12/03 06:57:17;;;;;;;0.30;0.30;;;19.40;61.00;;;23.40;35.55;94254.25;6068466;19;20036;-59
2021/12/03 06:59:20;;;;;;;0.20;0.20;;;19.40;61.00;;;23.39;35.34;94258.88;6060740;19;20573;-59
2021/12/03 07:01:21;;;;;;;0.30;0.30;;;19.40;61.00;;;23.40;35.64;94265.91;6064164;19;20022;-59
2021/12/03 07:03:22;;;;;;;0.30;0.30;;;19.40;60.90;;;23.40;35.57;94263.19;6062220;19;20034;-59
2021/12/03 07:05:23;;;;;;;0.22;0.22;;;19.40;60.90;;;23.41;35.38;94272.13;6066017;19;20010;-59
2021/12/03 07:07:24;;;;;;;0.20;0.20;;;19.40;61.00;;;23.40;35.36;94276.78;6078063;19;20455;-59
2021/12/03 07:09:24;;;;;;;0.20;0.20;;;19.40;61.10;;;23.41;35.46;94283.03;6087305;19;20656;-59
2021/12/03 07:11:25;;;;;;;0.28;0.28;;;19.40;61.10;;;23.41;35.83;94280.28;6075041;19;20014;-58
2021/12/03 07:13:30;;;;;;;0.20;0.20;;;19.40;61.10;;;23.41;35.78;94286.53;6061433;19;20013;-59
2021/12/03 07:15:31;;;;;;;0.50;0.50;;;19.40;61.10;;;23.42;35.51;94285.38;6074579;19;20097;-59
2021/12/03 07:17:33;;;;;;;0.20;0.20;;;19.40;61.10;;;23.43;35.97;94291.63;6063086;19;20013;-59
2021/12/03 07:19:34;;;;;;;0.20;0.20;;;19.40;61.10;;;23.43;35.65;94278.81;6066256;19;20450;-59
2021/12/03 07:21:35;;;;;;;0.20;0.20;;;19.40;61.10;;;23.44;35.82;94282.31;6065287;19;20014;-59
2021/12/03 07:23:36;;;;;;;0.20;0.20;;;19.40;61.10;;;23.45;35.90;94295.56;6072977;19;20009;-59
2021/12/03 07:25:37;;;;;;;0.30;0.30;;;19.40;61.10;;;23.45;35.73;94294.78;6068932;19;20014;-58
2021/12/03 07:27:38;;;;;;;0.20;0.20;;;19.40;61.10;;;23.46;35.90;94290.91;6073660;19;20623;-58
2021/12/03 07:29:39;;;;;;;0.20;0.20;;;19.40;61.10;;;23.45;35.42;94295.56;6067472;19;20037;-58
2021/12/03 07:31:40;;;;;;;0.40;0.40;;;19.40;61.10;;;23.45;35.30;94295.56;6078730;19;20010;-59
2021/12/03 07:33:41;;;;;;;0.20;0.20;;;19.40;61.00;;;23.45;35.44;94298.28;6081900;19;20048;-59
2021/12/03 07:35:44;;;;;;;0.20;0.20;;;19.40;61.00;;;23.45;35.53;94301.00;6072861;19;20066;-58
2021/12/03 07:37:45;;;;;;;0.20;0.20;;;19.40;61.00;;;23.45;35.88;94302.94;6077540;19;20056;-58
2021/12/03 07:39:46;;;;;;;1.65;0.40;;;19.40;60.90;;;23.45;35.79;94309.16;6069569;19;20006;-59
2021/12/03 07:41:47;;;;;;;0.30;0.30;;;19.40;61.00;;;23.45;35.58;94305.66;6058394;19;20018;-59
2021/12/03 07:43:47;;;;;;;0.28;0.20;;;19.40;61.20;;;23.45;35.50;94309.16;6068149;19;20010;-58
2021/12/03 07:45:49;;;;;;;0.20;0.20;;;19.40;60.90;;;23.44;35.28;94306.78;6078314;19;20591;-58
2021/12/03 07:47:50;;;;;;;0.32;0.30;;;19.40;60.90;;;23.44;35.38;94313.03;6064749;19;20631;-58
2021/12/03 07:49:52;;;;;;;0.22;0.22;;;19.40;60.90;;;23.43;35.27;94308.72;6065486;19;20120;-59
2021/12/03 07:51:54;;;;;;;0.30;0.30;;;19.40;60.90;;;23.43;35.81;94314.16;6074170;19;20011;-58
2021/12/03 07:53:56;;;;;;;0.20;0.20;;;19.40;61.00;;;23.42;35.49;94318.03;6063301;19;20577;-58
2021/12/03 07:55:56;;;;;;;0.20;0.20;;;19.40;60.90;;;23.43;35.59;94316.88;6061275;19;20014;-58
2021/12/03 07:57:57;;;;;;;0.20;0.20;;;19.40;60.90;;;23.42;35.68;94320.75;6063277;19;20015;-58
2021/12/03 08:00:00;;;;;;;0.20;0.20;;;19.40;60.90;;;23.41;35.65;94321.09;6074228;19;20002;-58
2021/12/03 08:02:02;;;;;;;0.30;0.30;;;19.40;61.40;;;23.40;35.64;94324.97;6072793;19;20427;-59
2021/12/03 08:04:04;;;;;;;0.80;0.30;;;19.40;61.40;;;23.39;35.57;94329.63;6065841;19;20032;-59
2021/12/03 08:06:08;;;;;;;1.65;0.30;;;19.40;61.40;;;23.39;35.64;94335.06;6085290;19;20025;-58
2021/12/03 08:08:09;;;;;;;0.60;0.60;;;19.40;61.50;;;23.39;35.98;94336.97;6078969;19;20022;-58
2021/12/03 08:10:10;;;;;;;1.15;0.30;;;19.40;61.50;;;23.39;35.81;94335.06;6057902;19;20732;-59
2021/12/03 08:12:11;;;;;;;0.52;0.43;;;19.40;61.40;;;23.39;35.96;94345.94;6072160;19;20081;-58
2021/12/03 08:14:12;;;;;;;2.15;0.50;;;19.40;61.30;;;23.40;35.68;94341.28;6067837;19;20010;-58
2021/12/03 08:16:12;;;;;;;1.70;0.30;;;19.30;61.20;;;23.41;36.00;94343.66;6069956;19;20014;-58
2021/12/03 08:18:14;;;;;;;5.55;0.50;;;19.40;61.30;;;23.40;35.65;94342.06;6081177;19;20139;-58
2021/12/03 08:20:17;;;;;;;0.30;0.30;;;19.40;61.30;;;23.40;35.64;94350.22;6070966;19;20021;-58
2021/12/03 08:22:20;;;;;;;0.30;0.30;;;19.40;61.20;;;23.41;35.87;94359.97;6088852;19;20006;-58
2021/12/03 08:24:21;;;;;;;;;;;19.40;61.20;;;23.42;35.81;94353.41;6091136;19;20022;-58
2021/12/03 08:26:22;;;;;;;1.00;0.52;;;19.40;61.10;;;23.43;35.46;94357.69;6075895;19;19917;-59
2021/12/03 08:28:23;;;;;;;3.33;0.40;;;19.40;61.80;;;23.43;35.59;94356.91;6084468;19;20023;-59
2021/12/03 08:30:28;;;;;;;0.40;0.40;;;19.40;61.00;;;23.43;35.49;94357.69;6089537;19;20486;-58
2021/12/03 08:32:29;;;;;;;0.40;0.40;;;19.40;60.90;;;23.43;35.85;94356.91;6090438;19;20006;-58